Mediterranean Sea — WDG229 — position and weather

sailwx.info

Track history (hours):
 
Tides and Currents Weather Stations Pressure Air Temp Water Temp Dewpoint Dewpoint Depression Visibility Wind Speed Wind Dir Waves Ship Positions

Mediterranean Sea

Last reported at 2016-Feb-08 14:23 UTC. Time now 2016-Feb-09 10:04 UTC.
Position N 40°38' W 074°10'.

Length 128 m; draft 6 m.

Type: . MMSI: 367010390.

Date/timePositionNaut miles runAvg speedWind from/ knotsBaromVisibWave heightAir tempDewpointWater temp
2016-Feb-08 14:23N 40°38' W 074°10'0 0.0
2016-Feb-08 10:23N 40°39' W 074°10'0 0.0
2016-Feb-08 09:11N 40°38' W 074°10'0 0.0
2016-Feb-08 04:17N 40°39' W 074°10'0 0.0
2016-Feb-08 03:32N 40°39' W 074°10'0 0.0
2016-Feb-07 17:05N 40°38' W 074°10'0 0.0
2016-Feb-06 01:23N 40°39' W 074°10'0 0.0
2016-Feb-05 23:29N 40°39' W 074°10'0 0.0
2016-Feb-05 22:29N 40°39' W 074°10'0 0.0
2016-Feb-05 21:29N 40°39' W 074°10'0 0.0
2016-Feb-05 20:29N 40°39' W 074°10'0 0.0
2016-Feb-05 19:29N 40°39' W 074°10'0 0.0
2016-Feb-05 18:29N 40°39' W 074°10'0 0.0
2016-Feb-05 17:33N 40°39' W 074°10'0 0.0
2016-Feb-05 16:33N 40°39' W 074°10'6 5.5
2016-Feb-05 15:33N 40°39' W 074°03'6 5.2
2016-Feb-05 14:29N 40°39' W 074°10'0 0.0
2016-Feb-05 13:26N 40°39' W 074°10'0 0.0
2016-Feb-05 12:32N 40°39' W 074°10'0 0.0
2016-Feb-05 11:32N 40°38' W 074°10'0 0.0
2016-Feb-05 10:32N 40°38' W 074°10'0 0.0
2016-Feb-05 09:32N 40°38' W 074°10'0 0.0
2016-Feb-05 08:32N 40°39' W 074°10'0 0.0
2016-Feb-05 07:32N 40°39' W 074°10'0 0.0
2016-Feb-05 06:26N 40°38' W 074°10'0 0.0
2016-Feb-05 05:32N 40°38' W 074°10'0 0.0
2016-Feb-05 04:32N 40°38' W 074°10'0 0.0
2016-Feb-05 03:32N 40°38' W 074°10'0 0.0
2016-Feb-05 02:26N 40°38' W 074°10'0 0.1
2016-Feb-05 01:33N 40°39' W 074°10'0 0.1
2016-Feb-05 00:32N 40°39' W 074°10'0 0.0
2016-Feb-04 23:32N 40°39' W 074°10'0 0.0
2016-Feb-04 22:32N 40°39' W 074°10'0 0.0
2016-Feb-04 21:32N 40°39' W 074°10'0 0.0
2016-Feb-04 19:33N 40°39' W 074°10'3 2.6
2016-Feb-04 18:33N 40°39' W 074°07'3 2.5
2016-Feb-04 17:32N 40°39' W 074°10'0 0.0
2016-Feb-04 16:32N 40°39' W 074°10'0 0.0
2016-Feb-04 15:29N 40°39' W 074°10'0 0.0
2016-Feb-04 14:32N 40°39' W 074°10'0 0.0
2016-Feb-04 13:20N 40°39' W 074°10'0 0.0
2016-Feb-04 09:32N 40°39' W 074°10'0 0.0
2016-Feb-04 08:29N 40°39' W 074°10'0 0.0
2016-Feb-04 07:29N 40°39' W 074°10'0 0.0
2016-Feb-04 06:32N 40°39' W 074°10'0 0.0
2016-Feb-04 05:26N 40°39' W 074°10'0 0.0
2016-Feb-04 04:32N 40°39' W 074°10'0 0.0
2016-Feb-04 03:32N 40°39' W 074°10'0 0.0
2016-Feb-04 02:26N 40°39' W 074°10'0 0.0
2016-Feb-04 01:29N 40°39' W 074°10'0 0.0
2016-Feb-04 00:32N 40°39' W 074°10'0 0.0
2016-Feb-03 23:29N 40°39' W 074°10'0 0.0
2016-Feb-03 22:29N 40°39' W 074°10'0 0.0
2016-Feb-03 15:29N 40°39' W 074°10'0 0.0
2016-Feb-03 14:29N 40°39' W 074°10'0 0.0
2016-Feb-03 13:29N 40°39' W 074°10'0 0.0
2016-Feb-03 12:20N 40°39' W 074°10'0 0.0
2016-Feb-03 11:32N 40°39' W 074°10'0 0.0
2016-Feb-03 10:29N 40°39' W 074°10'0 0.0
2016-Feb-03 09:29N 40°39' W 074°10'0 0.0
2016-Feb-03 08:29N 40°39' W 074°10'0 0.0
2016-Feb-03 07:29N 40°39' W 074°10'0 0.0
2016-Feb-03 06:32N 40°39' W 074°10'0 0.0
2016-Feb-03 04:32N 40°39' W 074°10'0 0.0
2016-Feb-03 03:29N 40°39' W 074°10'0 0.0
2016-Feb-03 02:14N 40°39' W 074°10'0 0.0
2016-Feb-03 01:26N 40°39' W 074°10'0 0.0
2016-Feb-03 00:29N 40°39' W 074°10'0 0.0
2016-Feb-02 23:23N 40°39' W 074°10'0 0.0
2016-Feb-02 22:30N 40°39' W 074°10'0 0.0
2016-Feb-02 21:12N 40°39' W 074°10'1 2.2
2016-Feb-02 20:32N 40°39' W 074°08'3 3.2
2016-Feb-02 19:33N 40°38' W 074°04'0 0.1
2016-Feb-02 18:34N 40°38' W 074°04'0 0.3
2016-Feb-02 17:34N 40°38' W 074°03'7 6.8
2016-Feb-02 16:34N 40°43' W 073°58'7 6.5
2016-Feb-02 15:31N 40°48' W 073°52'10 8.6
2016-Feb-02 14:24N 40°54' W 073°41'4 2.3
2016-Feb-02 12:32N 40°56' W 073°36'8 8.6
2016-Feb-02 11:33N 40°60' W 073°26'9 9.3
2016-Feb-02 10:33N 41°01' W 073°14'2110.2
2016-Feb-02 08:32N 41°05' W 072°47'1010.6
2016-Feb-02 07:34N 41°08' W 072°34'1111.2
2016-Feb-02 06:33N 41°11' W 072°20'96 6.4
2016-Feb-01 15:33N 42°20' W 070°51'5 5.3
2016-Feb-01 14:33N 42°16' W 070°56'2 2.3
2016-Feb-01 13:28N 42°14' W 070°58'0 0.0
2016-Jan-31 17:29N 42°14' W 070°58'3 3.2
2016-Jan-31 16:33N 42°17' W 070°56'4 3.7
2016-Jan-31 15:33N 42°20' W 070°57'1 1.0
2016-Jan-31 14:33N 42°20' W 070°58'0 0.0
2016-Jan-31 13:33N 42°20' W 070°58'0 0.1
2016-Jan-31 12:33N 42°21' W 070°58'0 0.0
2016-Jan-31 11:33N 42°21' W 070°58'1 0.9
2016-Jan-31 10:33N 42°20' W 070°57'3 2.9
2016-Jan-31 09:33N 42°22' W 070°55'3 3.5
2016-Jan-31 08:33N 42°23' W 070°50'5 4.6
2016-Jan-31 07:33N 42°20' W 070°45'96 4.0
2016-Jan-30 07:29N 41°12' W 072°16'5 5.8
2016-Jan-30 06:33N 41°10' W 072°22'3 3.2
2016-Jan-30 05:33N 41°10' W 072°26'0 0.4
2016-Jan-30 04:33N 41°09' W 072°27'7 6.5
2016-Jan-30 03:33N 41°08' W 072°35'7 7.1
2016-Jan-30 02:33N 41°06' W 072°44'24 7.9
2016-Jan-29 23:33N 41°01' W 073°15'8 8.1
2016-Jan-29 22:33N 40°60' W 073°26'8 7.8
2016-Jan-29 21:33N 40°56' W 073°35'15 6.4
2016-Jan-29 19:16N 40°48' W 073°51'4 5.4
2016-Jan-29 18:33N 40°47' W 073°56'6 5.8
2016-Jan-29 17:33N 40°42' W 074°00'2 2.4
2016-Jan-29 16:33N 40°40' W 074°02'5 4.8
2016-Jan-29 15:33N 40°39' W 074°08'  
Track history (hours):
 
Tides and Currents Weather Stations Pressure Air Temp Water Temp Dewpoint Dewpoint Depression Visibility Wind Speed Wind Dir Waves Ship Positions

Mediterranean Sea

Last reported at 2016-Feb-08 14:23 UTC. Time now 2016-Feb-09 10:04 UTC.
Position N 40°38' W 074°10'.

Length 128 m; draft 6 m.

Type: . MMSI: 367010390.

Date/timePositionNaut miles runAvg speedWind from/ knotsBaromVisibWave heightAir tempDewpointWater temp
2016-Feb-08 14:23N 40°38' W 074°10'0 0.0
2016-Feb-08 10:23N 40°39' W 074°10'0 0.0
2016-Feb-08 09:11N 40°38' W 074°10'0 0.0
2016-Feb-08 04:17N 40°39' W 074°10'0 0.0
2016-Feb-08 03:32N 40°39' W 074°10'0 0.0
2016-Feb-07 17:05N 40°38' W 074°10'0 0.0
2016-Feb-06 01:23N 40°39' W 074°10'0 0.0
2016-Feb-05 23:29N 40°39' W 074°10'0 0.0
2016-Feb-05 22:29N 40°39' W 074°10'0 0.0
2016-Feb-05 21:29N 40°39' W 074°10'0 0.0
2016-Feb-05 20:29N 40°39' W 074°10'0 0.0
2016-Feb-05 19:29N 40°39' W 074°10'0 0.0
2016-Feb-05 18:29N 40°39' W 074°10'0 0.0
2016-Feb-05 17:33N 40°39' W 074°10'0 0.0
2016-Feb-05 16:33N 40°39' W 074°10'6 5.5
2016-Feb-05 15:33N 40°39' W 074°03'6 5.2
2016-Feb-05 14:29N 40°39' W 074°10'0 0.0
2016-Feb-05 13:26N 40°39' W 074°10'0 0.0
2016-Feb-05 12:32N 40°39' W 074°10'0 0.0
2016-Feb-05 11:32N 40°38' W 074°10'0 0.0
2016-Feb-05 10:32N 40°38' W 074°10'0 0.0
2016-Feb-05 09:32N 40°38' W 074°10'0 0.0
2016-Feb-05 08:32N 40°39' W 074°10'0 0.0
2016-Feb-05 07:32N 40°39' W 074°10'0 0.0
2016-Feb-05 06:26N 40°38' W 074°10'0 0.0
2016-Feb-05 05:32N 40°38' W 074°10'0 0.0
2016-Feb-05 04:32N 40°38' W 074°10'0 0.0
2016-Feb-05 03:32N 40°38' W 074°10'0 0.0
2016-Feb-05 02:26N 40°38' W 074°10'0 0.1
2016-Feb-05 01:33N 40°39' W 074°10'0 0.1
2016-Feb-05 00:32N 40°39' W 074°10'0 0.0
2016-Feb-04 23:32N 40°39' W 074°10'0 0.0
2016-Feb-04 22:32N 40°39' W 074°10'0 0.0
2016-Feb-04 21:32N 40°39' W 074°10'0 0.0
2016-Feb-04 19:33N 40°39' W 074°10'3 2.6
2016-Feb-04 18:33N 40°39' W 074°07'3 2.5
2016-Feb-04 17:32N 40°39' W 074°10'0 0.0
2016-Feb-04 16:32N 40°39' W 074°10'0 0.0
2016-Feb-04 15:29N 40°39' W 074°10'0 0.0
2016-Feb-04 14:32N 40°39' W 074°10'0 0.0
2016-Feb-04 13:20N 40°39' W 074°10'0 0.0
2016-Feb-04 09:32N 40°39' W 074°10'0 0.0
2016-Feb-04 08:29N 40°39' W 074°10'0 0.0
2016-Feb-04 07:29N 40°39' W 074°10'0 0.0
2016-Feb-04 06:32N 40°39' W 074°10'0 0.0
2016-Feb-04 05:26N 40°39' W 074°10'0 0.0
2016-Feb-04 04:32N 40°39' W 074°10'0 0.0
2016-Feb-04 03:32N 40°39' W 074°10'0 0.0
2016-Feb-04 02:26N 40°39' W 074°10'0 0.0
2016-Feb-04 01:29N 40°39' W 074°10'0 0.0
2016-Feb-04 00:32N 40°39' W 074°10'0 0.0
2016-Feb-03 23:29N 40°39' W 074°10'0 0.0
2016-Feb-03 22:29N 40°39' W 074°10'0 0.0
2016-Feb-03 15:29N 40°39' W 074°10'0 0.0
2016-Feb-03 14:29N 40°39' W 074°10'0 0.0
2016-Feb-03 13:29N 40°39' W 074°10'0 0.0
2016-Feb-03 12:20N 40°39' W 074°10'0 0.0
2016-Feb-03 11:32N 40°39' W 074°10'0 0.0
2016-Feb-03 10:29N 40°39' W 074°10'0 0.0
2016-Feb-03 09:29N 40°39' W 074°10'0 0.0
2016-Feb-03 08:29N 40°39' W 074°10'0 0.0
2016-Feb-03 07:29N 40°39' W 074°10'0 0.0
2016-Feb-03 06:32N 40°39' W 074°10'0 0.0
2016-Feb-03 04:32N 40°39' W 074°10'0 0.0
2016-Feb-03 03:29N 40°39' W 074°10'0 0.0
2016-Feb-03 02:14N 40°39' W 074°10'0 0.0
2016-Feb-03 01:26N 40°39' W 074°10'0 0.0
2016-Feb-03 00:29N 40°39' W 074°10'0 0.0
2016-Feb-02 23:23N 40°39' W 074°10'0 0.0
2016-Feb-02 22:30N 40°39' W 074°10'0 0.0
2016-Feb-02 21:12N 40°39' W 074°10'1 2.2
2016-Feb-02 20:32N 40°39' W 074°08'3 3.2
2016-Feb-02 19:33N 40°38' W 074°04'0 0.1
2016-Feb-02 18:34N 40°38' W 074°04'0 0.3
2016-Feb-02 17:34N 40°38' W 074°03'7 6.8
2016-Feb-02 16:34N 40°43' W 073°58'7 6.5
2016-Feb-02 15:31N 40°48' W 073°52'10 8.6
2016-Feb-02 14:24N 40°54' W 073°41'4 2.3
2016-Feb-02 12:32N 40°56' W 073°36'8 8.6
2016-Feb-02 11:33N 40°60' W 073°26'9 9.3
2016-Feb-02 10:33N 41°01' W 073°14'2110.2
2016-Feb-02 08:32N 41°05' W 072°47'1010.6
2016-Feb-02 07:34N 41°08' W 072°34'1111.2
2016-Feb-02 06:33N 41°11' W 072°20'96 6.4
2016-Feb-01 15:33N 42°20' W 070°51'5 5.3
2016-Feb-01 14:33N 42°16' W 070°56'2 2.3
2016-Feb-01 13:28N 42°14' W 070°58'0 0.0
2016-Jan-31 17:29N 42°14' W 070°58'3 3.2
2016-Jan-31 16:33N 42°17' W 070°56'4 3.7
2016-Jan-31 15:33N 42°20' W 070°57'1 1.0
2016-Jan-31 14:33N 42°20' W 070°58'0 0.0
2016-Jan-31 13:33N 42°20' W 070°58'0 0.1
2016-Jan-31 12:33N 42°21' W 070°58'0 0.0
2016-Jan-31 11:33N 42°21' W 070°58'1 0.9
2016-Jan-31 10:33N 42°20' W 070°57'3 2.9
2016-Jan-31 09:33N 42°22' W 070°55'3 3.5
2016-Jan-31 08:33N 42°23' W 070°50'5 4.6
2016-Jan-31 07:33N 42°20' W 070°45'96 4.0
2016-Jan-30 07:29N 41°12' W 072°16'5 5.8
2016-Jan-30 06:33N 41°10' W 072°22'3 3.2
2016-Jan-30 05:33N 41°10' W 072°26'0 0.4
2016-Jan-30 04:33N 41°09' W 072°27'7 6.5
2016-Jan-30 03:33N 41°08' W 072°35'7 7.1
2016-Jan-30 02:33N 41°06' W 072°44'24 7.9
2016-Jan-29 23:33N 41°01' W 073°15'8 8.1
2016-Jan-29 22:33N 40°60' W 073°26'8 7.8
2016-Jan-29 21:33N 40°56' W 073°35'15 6.4
2016-Jan-29 19:16N 40°48' W 073°51'4 5.4
2016-Jan-29 18:33N 40°47' W 073°56'6 5.8
2016-Jan-29 17:33N 40°42' W 074°00'2 2.4
2016-Jan-29 16:33N 40°40' W 074°02'5 4.8
2016-Jan-29 15:33N 40°39' W 074°08'  

Dump ship's entire track history